createdAt,value
2024-05-09T00:00:39.876Z,77.66
2024-05-09T00:01:37.478Z,77.56
2024-05-09T00:02:37.631Z,78.07
2024-05-09T00:03:37.737Z,78.68
2024-05-09T00:04:37.837Z,79.09
2024-05-09T00:05:38.143Z,78.99
2024-05-09T00:06:38.048Z,78.99
2024-05-09T00:07:38.155Z,78.99
2024-05-09T00:08:38.299Z,78.48
2024-05-09T00:09:38.375Z,78.07
2024-05-09T00:10:39.750Z,77.97
2024-05-09T00:11:38.652Z,77.97
2024-05-09T00:12:38.722Z,77.93
2024-05-09T00:13:38.851Z,77.86
2024-05-09T00:14:38.984Z,77.97
2024-05-09T00:15:39.129Z,78.27
2024-05-09T00:16:39.245Z,78.07
2024-05-09T00:17:39.714Z,77.97
2024-05-09T00:18:39.538Z,78.58
2024-05-09T00:19:39.612Z,78.68
2024-05-09T00:20:41.242Z,78.99
2024-05-09T00:21:39.799Z,78.99
2024-05-09T00:22:39.910Z,78.99
2024-05-09T00:23:40.100Z,79.23
2024-05-09T00:24:40.201Z,79.23
2024-05-09T00:25:40.396Z,79.33
2024-05-09T00:26:40.491Z,79.43
2024-05-09T00:27:40.602Z,79.43
2024-05-09T00:28:40.679Z,79.94
2024-05-09T00:29:40.787Z,80.19
2024-05-09T00:30:41.027Z,80.49
2024-05-09T00:31:41.041Z,80.49
2024-05-09T00:32:41.280Z,80.08
2024-05-09T00:33:41.497Z,80.19
2024-05-09T00:34:41.529Z,80.29
2024-05-09T00:35:41.863Z,80.49
2024-05-09T00:36:41.794Z,80.63
2024-05-09T00:37:41.888Z,80.74
2024-05-09T00:38:42.031Z,80.63
2024-05-09T00:39:42.168Z,80.83
2024-05-09T00:40:43.585Z,80.94
2024-05-09T00:41:42.429Z,81.38
2024-05-09T00:42:42.548Z,81.70
2024-05-09T00:43:42.662Z,81.90
2024-05-09T00:44:42.767Z,81.70
2024-05-09T00:45:43.078Z,81.70
2024-05-09T00:46:43.036Z,81.90
2024-05-09T00:47:43.249Z,81.79
2024-05-09T00:48:43.327Z,82.00
2024-05-09T00:49:43.502Z,82.04
2024-05-09T00:50:43.628Z,81.63
2024-05-09T00:51:43.704Z,81.94
2024-05-09T00:52:43.807Z,82.14
2024-05-09T00:53:43.928Z,82.35
2024-05-09T00:54:43.994Z,82.24
2024-05-09T00:55:44.318Z,81.94
2024-05-09T00:56:44.284Z,82.14
2024-05-09T00:57:44.391Z,82.04
2024-05-09T00:58:44.544Z,82.04
2024-05-09T00:59:44.640Z,82.14
2024-05-09T01:00:44.969Z,81.94
2024-05-09T01:01:45.137Z,82.04
2024-05-09T01:02:45.287Z,81.84
2024-05-09T01:03:46.611Z,81.73
2024-05-09T01:04:45.565Z,81.73
2024-05-09T01:05:45.586Z,81.73
2024-05-09T01:06:45.684Z,81.87
2024-05-09T01:07:45.860Z,82.49
2024-05-09T01:08:45.979Z,82.79
2024-05-09T01:09:46.073Z,83.00
2024-05-09T01:10:48.479Z,83.20
2024-05-09T01:11:46.503Z,83.20
2024-05-09T01:12:46.476Z,83.31
2024-05-09T01:13:46.619Z,83.45
2024-05-09T01:14:46.722Z,83.55
2024-05-09T01:15:46.852Z,83.76
2024-05-09T01:16:46.976Z,83.76
2024-05-09T01:17:47.362Z,83.96
2024-05-09T01:18:47.235Z,83.76
2024-05-09T01:19:47.446Z,83.76
2024-05-09T01:20:47.575Z,83.86
2024-05-09T01:21:47.649Z,83.96
2024-05-09T01:22:47.804Z,84.06
2024-05-09T01:23:47.955Z,83.86
2024-05-09T01:24:48.075Z,83.82
2024-05-09T01:25:48.259Z,84.03
2024-05-09T01:26:48.344Z,84.12
2024-05-09T01:27:48.477Z,83.82
2024-05-09T01:28:48.612Z,83.61
2024-05-09T01:29:48.715Z,83.72
2024-05-09T01:30:48.851Z,84.12
2024-05-09T01:31:49.047Z,84.23
2024-05-09T01:32:49.375Z,84.33
2024-05-09T01:33:49.503Z,84.03
2024-05-09T01:34:49.505Z,83.92
2024-05-09T01:35:49.606Z,84.03
2024-05-09T01:36:49.730Z,84.12
2024-05-09T01:37:49.926Z,84.12
2024-05-09T01:38:49.994Z,84.33
2024-05-09T01:39:50.110Z,84.53
2024-05-09T01:40:50.286Z,84.74
2024-05-09T01:41:50.373Z,84.64
2024-05-09T01:42:50.577Z,84.53
2024-05-09T01:43:50.712Z,84.64
2024-05-09T01:44:50.818Z,84.53
2024-05-09T01:45:51.135Z,84.64
2024-05-09T01:46:51.128Z,84.84
2024-05-09T01:47:51.437Z,84.84
2024-05-09T01:48:51.462Z,84.64
2024-05-09T01:49:51.565Z,84.23
2024-05-09T01:50:51.837Z,83.51
2024-05-09T01:51:51.842Z,83.61
2024-05-09T01:52:52.003Z,83.82
2024-05-09T01:53:52.119Z,83.92
2024-05-09T01:54:52.255Z,83.92
2024-05-09T01:55:52.413Z,83.92
2024-05-09T01:56:52.506Z,84.12
2024-05-09T01:57:52.626Z,84.33
2024-05-09T01:58:52.788Z,84.74
2024-05-09T01:59:52.909Z,84.84
2024-05-09T02:00:53.080Z,84.95
2024-05-09T02:01:56.902Z,84.95
2024-05-09T02:02:53.495Z,84.95
2024-05-09T02:03:53.657Z,84.84
2024-05-09T02:04:53.714Z,84.74
2024-05-09T02:05:53.775Z,84.53
2024-05-09T02:06:53.867Z,84.44
2024-05-09T02:07:54.046Z,84.44
2024-05-09T02:08:54.114Z,84.44
2024-05-09T02:09:54.222Z,84.47
2024-05-09T02:10:54.477Z,84.47
2024-05-09T02:11:54.579Z,84.58
2024-05-09T02:12:54.617Z,84.68
2024-05-09T02:13:54.774Z,84.78
2024-05-09T02:14:54.881Z,85.09
2024-05-09T02:15:55.030Z,85.19
2024-05-09T02:16:55.228Z,85.33
2024-05-09T02:17:55.603Z,85.54
2024-05-09T02:18:55.557Z,85.74
2024-05-09T02:19:55.705Z,85.74
2024-05-09T02:20:55.919Z,85.74
2024-05-09T02:21:56.020Z,85.89
2024-05-09T02:22:56.234Z,85.89
2024-05-09T02:23:56.335Z,86.09
2024-05-09T02:24:56.480Z,86.30
2024-05-09T02:25:56.728Z,86.50
2024-05-09T02:26:56.762Z,86.65
2024-05-09T02:27:56.930Z,86.65
2024-05-09T02:28:57.123Z,86.75
2024-05-09T02:29:57.213Z,86.95
2024-05-09T02:30:57.386Z,87.05
2024-05-09T02:31:57.671Z,87.30
2024-05-09T02:32:57.816Z,87.30
2024-05-09T02:33:57.952Z,87.40
2024-05-09T02:34:58.046Z,87.61
2024-05-09T02:35:58.197Z,87.82
2024-05-09T02:36:58.363Z,87.82
2024-05-09T02:37:58.593Z,87.92
2024-05-09T02:38:58.711Z,87.92
2024-05-09T02:39:58.880Z,87.85
2024-05-09T02:40:59.089Z,87.96
2024-05-09T02:41:59.241Z,88.06
2024-05-09T02:42:59.400Z,88.17
2024-05-09T02:43:59.603Z,88.27
2024-05-09T02:44:59.737Z,88.17
2024-05-09T02:45:59.912Z,88.27
2024-05-09T02:47:00.121Z,88.17
2024-05-09T02:48:01.383Z,88.17
2024-05-09T02:49:00.550Z,88.17
2024-05-09T02:50:00.677Z,88.37
2024-05-09T02:51:00.823Z,88.62
2024-05-09T02:52:00.870Z,88.51
2024-05-09T02:53:01.198Z,88.62
2024-05-09T02:54:01.205Z,88.51
2024-05-09T02:55:01.371Z,88.62
2024-05-09T02:56:01.534Z,88.82
2024-05-09T02:57:01.646Z,88.82
2024-05-09T02:58:01.814Z,89.03
2024-05-09T02:59:01.967Z,89.03
2024-05-09T03:00:02.083Z,89.07
2024-05-09T03:01:02.296Z,89.13
2024-05-09T03:02:02.425Z,89.07
2024-05-09T03:03:02.591Z,89.17
2024-05-09T03:04:02.851Z,89.38
2024-05-09T03:05:02.868Z,89.48
2024-05-09T03:06:03.017Z,89.58
2024-05-09T03:07:03.163Z,89.58
2024-05-09T03:08:03.374Z,89.58
2024-05-09T03:09:03.515Z,89.69
2024-05-09T03:10:04.524Z,89.79
2024-05-09T03:11:03.983Z,89.69
2024-05-09T03:12:04.166Z,89.48
2024-05-09T03:13:04.231Z,89.48
2024-05-09T03:14:04.415Z,89.48
2024-05-09T03:15:04.556Z,89.58
2024-05-09T03:16:04.727Z,89.58
2024-05-09T03:17:04.939Z,89.48
2024-05-09T03:18:05.409Z,89.38
2024-05-09T03:19:05.378Z,89.38
2024-05-09T03:20:09.113Z,89.52
2024-05-09T03:21:06.702Z,89.73
2024-05-09T03:22:05.774Z,89.73
2024-05-09T03:23:06.397Z,89.73
2024-05-09T03:24:05.991Z,89.83
2024-05-09T03:25:06.161Z,89.83
2024-05-09T03:26:06.405Z,90.03
2024-05-09T03:27:06.583Z,90.03
2024-05-09T03:28:06.617Z,90.03
2024-05-09T03:29:06.807Z,89.94
2024-05-09T03:30:07.671Z,89.94
2024-05-09T03:31:07.080Z,89.94
2024-05-09T03:32:07.332Z,90.03
2024-05-09T03:33:07.600Z,90.14
2024-05-09T03:34:07.621Z,90.24
2024-05-09T03:35:07.750Z,90.45
2024-05-09T03:36:10.540Z,90.45
2024-05-09T03:37:08.014Z,90.34
2024-05-09T03:38:08.200Z,90.34
2024-05-09T03:39:08.355Z,90.24
2024-05-09T03:40:14.485Z,90.24
2024-05-09T03:41:09.661Z,90.14
2024-05-09T03:42:08.836Z,90.24
2024-05-09T03:43:08.996Z,90.24
2024-05-09T03:44:09.285Z,90.24
2024-05-09T03:45:09.272Z,90.14
2024-05-09T03:46:09.415Z,90.14
2024-05-09T03:47:09.679Z,90.14
2024-05-09T03:48:10.148Z,90.34
2024-05-09T03:49:10.002Z,90.34
2024-05-09T03:50:17.631Z,90.55
2024-05-09T03:51:11.291Z,90.66
2024-05-09T03:52:10.340Z,90.66
2024-05-09T03:53:10.745Z,90.61
2024-05-09T03:54:10.682Z,90.41
2024-05-09T03:55:10.810Z,90.30
2024-05-09T03:56:11.024Z,90.20
2024-05-09T03:57:11.149Z,90.09
2024-05-09T03:58:11.314Z,90.00
2024-05-09T03:59:11.535Z,90.00
2024-05-09T04:00:17.893Z,89.85
2024-05-09T04:01:12.726Z,89.75
2024-05-09T04:02:11.962Z,89.64
2024-05-09T04:03:13.228Z,89.54
2024-05-09T04:04:12.195Z,89.44
2024-05-09T04:05:12.511Z,89.54
2024-05-09T04:06:12.658Z,89.54
2024-05-09T04:07:12.683Z,89.54
2024-05-09T04:08:13.017Z,89.44
2024-05-09T04:09:13.059Z,89.23
2024-05-09T04:10:21.139Z,89.13
2024-05-09T04:11:14.560Z,88.98
2024-05-09T04:12:13.633Z,88.89
2024-05-09T04:13:13.712Z,88.78
2024-05-09T04:14:13.985Z,88.78
2024-05-09T04:15:14.039Z,88.68
2024-05-09T04:16:14.161Z,88.68
2024-05-09T04:17:14.351Z,88.68
2024-05-09T04:18:14.570Z,88.57
2024-05-09T04:19:14.871Z,88.47
2024-05-09T04:20:24.586Z,88.43
2024-05-09T04:21:15.959Z,88.43
2024-05-09T04:22:15.086Z,88.23
2024-05-09T04:23:15.359Z,87.92
2024-05-09T04:24:15.327Z,88.12
2024-05-09T04:25:15.562Z,87.88
2024-05-09T04:26:15.738Z,87.57
2024-05-09T04:27:15.856Z,87.67
2024-05-09T04:28:15.989Z,87.77
2024-05-09T04:29:16.151Z,87.67
2024-05-09T04:30:25.420Z,87.73
2024-05-09T04:31:17.463Z,87.22
2024-05-09T04:32:16.714Z,87.02
2024-05-09T04:33:16.957Z,87.08
2024-05-09T04:34:17.150Z,87.08
2024-05-09T04:35:17.120Z,86.98
2024-05-09T04:36:17.091Z,86.77
2024-05-09T04:37:17.240Z,86.63
2024-05-09T04:38:17.422Z,86.52
2024-05-09T04:39:17.520Z,86.52
2024-05-09T04:40:24.454Z,86.38
2024-05-09T04:41:18.890Z,85.83
2024-05-09T04:42:17.986Z,84.31
2024-05-09T04:43:18.135Z,82.50
2024-05-09T04:44:18.291Z,81.20
2024-05-09T04:45:18.412Z,79.52
2024-05-09T04:46:18.527Z,78.53
2024-05-09T04:47:18.804Z,75.30
2024-05-09T04:48:18.978Z,74.32
2024-05-09T04:49:19.090Z,72.65
2024-05-09T04:50:29.054Z,71.40
2024-05-09T04:51:20.364Z,70.68
2024-05-09T04:52:19.461Z,69.26
2024-05-09T04:53:19.726Z,66.26
2024-05-09T04:54:30.069Z,65.15
2024-05-09T04:55:20.791Z,64.15
2024-05-09T04:56:19.975Z,60.93
2024-05-09T04:57:20.077Z,58.62
2024-05-09T04:58:20.167Z,57.03
2024-05-09T04:59:20.289Z,55.69
2024-05-09T05:00:28.494Z,54.66
2024-05-09T05:01:21.591Z,54.35
2024-05-09T05:02:20.724Z,53.63
2024-05-09T05:03:21.080Z,52.59
2024-05-09T05:04:20.905Z,52.39
2024-05-09T05:05:21.053Z,51.64
2024-05-09T05:06:20.981Z,50.61
2024-05-09T05:07:21.150Z,51.19
2024-05-09T05:08:21.218Z,49.66
2024-05-09T05:09:21.246Z,48.83
2024-05-09T05:10:25.755Z,48.28
2024-05-09T05:11:22.489Z,47.49
2024-05-09T05:12:21.748Z,47.41
2024-05-09T05:13:22.588Z,47.66
2024-05-09T05:14:21.615Z,46.54
2024-05-09T05:15:21.626Z,46.01
2024-05-09T05:16:21.640Z,45.69
2024-05-09T05:17:21.926Z,46.80
2024-05-09T05:18:22.051Z,46.62
2024-05-09T05:19:22.061Z,46.84
2024-05-09T05:20:30.579Z,47.31
2024-05-09T05:21:23.100Z,48.33
2024-05-09T05:22:22.046Z,47.97
2024-05-09T05:23:22.215Z,49.65
2024-05-09T05:24:22.131Z,50.26
2024-05-09T05:25:22.135Z,51.11
2024-05-09T05:26:22.211Z,49.33
2024-05-09T05:27:22.162Z,48.19
2024-05-09T05:28:22.297Z,46.44
2024-05-09T05:29:22.241Z,45.21
2024-05-09T05:30:28.745Z,45.17
2024-05-09T05:31:23.371Z,44.65
2024-05-09T05:32:22.598Z,44.35
2024-05-09T05:33:23.177Z,44.55
2024-05-09T05:34:22.441Z,44.73
2024-05-09T05:35:22.585Z,43.31
2024-05-09T05:36:22.461Z,43.49
2024-05-09T05:37:22.516Z,43.81
2024-05-09T05:38:26.089Z,43.33
2024-05-09T05:39:23.556Z,43.23
2024-05-09T05:40:32.023Z,44.13
2024-05-09T05:41:23.614Z,45.00
2024-05-09T05:42:22.653Z,45.35
2024-05-09T05:43:22.680Z,44.83
2024-05-09T05:44:22.741Z,43.89
2024-05-09T05:45:22.750Z,42.95
2024-05-09T05:46:22.759Z,42.21
2024-05-09T05:47:22.896Z,41.79
2024-05-09T05:48:23.119Z,40.28
2024-05-09T05:49:22.969Z,40.38
2024-05-09T05:50:28.026Z,40.92
2024-05-09T05:51:23.814Z,41.93
2024-05-09T05:52:22.799Z,42.35
2024-05-09T05:53:22.872Z,41.53
2024-05-09T05:54:22.730Z,42.05
2024-05-09T05:55:22.727Z,41.75
2024-05-09T05:56:22.745Z,43.05
2024-05-09T05:57:22.666Z,41.63
2024-05-09T05:58:22.655Z,42.13
2024-05-09T05:59:22.758Z,41.85
2024-05-09T06:00:29.763Z,42.35
2024-05-09T06:01:23.841Z,42.99
2024-05-09T06:02:22.671Z,43.69
2024-05-09T06:03:22.664Z,43.89
2024-05-09T06:04:22.676Z,42.79
2024-05-09T06:05:23.452Z,42.91
2024-05-09T06:06:22.676Z,43.31
2024-05-09T06:07:22.666Z,43.59
2024-05-09T06:08:22.798Z,42.47
2024-05-09T06:09:22.633Z,42.47
2024-05-09T06:10:29.582Z,42.75
2024-05-09T06:11:23.723Z,42.21
2024-05-09T06:12:22.621Z,41.89
2024-05-09T06:13:22.508Z,40.46
2024-05-09T06:14:22.542Z,40.66
2024-05-09T06:15:22.515Z,40.56
2024-05-09T06:16:22.513Z,39.98
2024-05-09T06:17:22.667Z,40.96
2024-05-09T06:18:22.596Z,40.40
2024-05-09T06:19:22.719Z,41.33
2024-05-09T06:20:31.578Z,41.67
2024-05-09T06:21:23.485Z,41.36
2024-05-09T06:22:22.428Z,42.47
2024-05-09T06:23:22.449Z,41.93
2024-05-09T06:24:22.408Z,42.45
2024-05-09T06:25:22.410Z,42.71
2024-05-09T06:26:22.501Z,42.57
2024-05-09T06:27:22.358Z,42.61
2024-05-09T06:28:22.356Z,39.98
2024-05-09T06:29:22.413Z,40.76
2024-05-09T06:30:30.015Z,40.66
2024-05-09T06:31:23.247Z,39.73
2024-05-09T06:32:22.325Z,38.30
2024-05-09T06:33:22.383Z,38.36
2024-05-09T06:34:22.328Z,37.65
2024-05-09T06:35:22.342Z,37.83
2024-05-09T06:36:22.092Z,35.85
2024-05-09T06:37:22.105Z,37.30
2024-05-09T06:38:22.138Z,38.40
2024-05-09T06:39:22.030Z,37.07
2024-05-09T06:40:25.879Z,36.86
2024-05-09T06:41:22.965Z,36.96
2024-05-09T06:42:21.912Z,37.45
2024-05-09T06:43:21.906Z,37.62
2024-05-09T06:44:21.958Z,38.92
2024-05-09T06:45:21.801Z,38.64
2024-05-09T06:46:21.738Z,38.73
2024-05-09T06:47:21.826Z,38.20
2024-05-09T06:48:22.518Z,37.35
2024-05-09T06:49:21.779Z,36.82
2024-05-09T06:50:24.328Z,36.66
2024-05-09T06:51:22.479Z,37.19
2024-05-09T06:52:21.415Z,37.07
2024-05-09T06:53:21.474Z,37.05
2024-05-09T06:54:21.302Z,36.24
2024-05-09T06:55:21.253Z,36.86
2024-05-09T06:56:21.279Z,37.43
2024-05-09T06:57:21.183Z,35.99
2024-05-09T06:58:21.120Z,34.97
2024-05-09T06:59:21.104Z,34.64
2024-05-09T07:00:27.566Z,33.65
2024-05-09T07:01:21.996Z,33.47
2024-05-09T07:02:20.968Z,33.18
2024-05-09T07:03:20.926Z,34.38
2024-05-09T07:04:20.818Z,34.38
2024-05-09T07:05:20.770Z,34.18
2024-05-09T07:06:20.505Z,35.47
2024-05-09T07:07:20.421Z,34.44
2024-05-09T07:08:20.416Z,33.54
2024-05-09T07:09:20.221Z,34.25
2024-05-09T07:10:28.477Z,34.12
2024-05-09T07:11:21.143Z,32.03
2024-05-09T07:12:20.123Z,32.03
2024-05-09T07:13:19.865Z,32.95
2024-05-09T07:14:19.813Z,34.48
2024-05-09T07:15:19.704Z,34.41
2024-05-09T07:16:19.636Z,35.06
2024-05-09T07:17:19.735Z,36.77
2024-05-09T07:18:20.432Z,36.72
2024-05-09T07:19:19.558Z,35.24
2024-05-09T07:20:27.629Z,36.40
2024-05-09T07:21:20.359Z,37.59
2024-05-09T07:22:19.140Z,37.45
2024-05-09T07:23:19.271Z,36.71
2024-05-09T07:24:19.072Z,34.61
2024-05-09T07:25:19.024Z,34.66
2024-05-09T07:26:19.112Z,33.85
2024-05-09T07:27:18.961Z,33.62
2024-05-09T07:28:19.190Z,32.73
2024-05-09T07:29:18.934Z,32.35
2024-05-09T07:30:23.846Z,33.58
2024-05-09T07:31:19.643Z,33.29
2024-05-09T07:32:18.639Z,32.78
2024-05-09T07:33:19.370Z,33.08
2024-05-09T07:34:18.444Z,33.34
2024-05-09T07:35:18.280Z,32.68
2024-05-09T07:36:18.196Z,33.21
2024-05-09T07:37:18.119Z,33.95
2024-05-09T07:38:18.072Z,33.91
2024-05-09T07:39:17.898Z,31.80
2024-05-09T07:40:28.166Z,31.09
2024-05-09T07:41:18.715Z,30.58
2024-05-09T07:42:17.629Z,31.10
2024-05-09T07:43:17.549Z,31.42
2024-05-09T07:44:17.552Z,32.16
2024-05-09T07:45:30.227Z,33.37
2024-05-09T07:47:14.387Z,32.78
2024-05-09T07:48:29.015Z,33.79
2024-05-09T07:50:56.106Z,36.36
2024-05-09T07:53:29.950Z,35.83
2024-05-09T07:53:38.145Z,34.53
2024-05-09T07:54:17.806Z,34.83
2024-05-09T07:55:16.515Z,35.32
2024-05-09T07:56:16.670Z,34.88
2024-05-09T07:57:16.343Z,32.54
2024-05-09T07:58:16.197Z,32.51
2024-05-09T07:59:16.123Z,31.92
2024-05-09T08:00:20.425Z,32.14
2024-05-09T08:01:17.117Z,32.35
2024-05-09T08:02:15.987Z,32.16
2024-05-09T08:03:15.947Z,32.97
2024-05-09T08:04:15.824Z,33.03
2024-05-09T08:05:15.863Z,34.53
2024-05-09T08:06:15.667Z,33.98
2024-05-09T08:07:15.470Z,33.20
2024-05-09T08:08:15.299Z,33.84
2024-05-09T08:09:20.568Z,31.63
2024-05-09T08:10:21.928Z,32.49
2024-05-09T08:11:16.113Z,30.40
2024-05-09T08:12:14.965Z,31.23
2024-05-09T08:13:15.071Z,31.63
2024-05-09T08:14:14.810Z,31.13
2024-05-09T08:15:14.628Z,29.66
2024-05-09T08:16:14.717Z,30.89
2024-05-09T08:17:14.505Z,34.17
2024-05-09T08:18:14.534Z,34.50
2024-05-09T08:19:14.431Z,31.81
2024-05-09T08:20:22.511Z,33.42
2024-05-09T08:21:15.070Z,32.90
2024-05-09T08:22:14.084Z,32.47
2024-05-09T08:23:13.911Z,31.34
2024-05-09T08:24:13.839Z,31.80
2024-05-09T08:25:14.255Z,30.40
2024-05-09T08:26:13.734Z,29.97
2024-05-09T08:27:13.636Z,28.58
2024-05-09T08:28:13.718Z,30.49
2024-05-09T08:29:13.438Z,30.44
2024-05-09T08:30:21.735Z,30.54
2024-05-09T08:31:14.327Z,29.52
2024-05-09T08:32:13.140Z,29.33
2024-05-09T08:33:13.084Z,30.31
2024-05-09T08:34:13.142Z,29.33
2024-05-09T08:35:12.924Z,30.75
2024-05-09T08:36:12.827Z,30.41
2024-05-09T08:37:19.632Z,30.49
2024-05-09T08:38:13.657Z,28.91
2024-05-09T08:39:12.565Z,29.25
2024-05-09T08:40:23.499Z,30.52
2024-05-09T08:41:13.381Z,32.35
2024-05-09T08:42:12.307Z,32.92
2024-05-09T08:43:13.076Z,31.88
2024-05-09T08:44:12.093Z,30.57
2024-05-09T08:45:12.010Z,31.16
2024-05-09T08:46:11.992Z,29.36
2024-05-09T08:47:11.820Z,30.55
2024-05-09T08:48:11.854Z,31.20
2024-05-09T08:49:11.673Z,30.35
2024-05-09T08:50:24.012Z,28.95
2024-05-09T08:51:12.331Z,29.61
2024-05-09T08:52:11.385Z,28.33
2024-05-09T08:53:11.176Z,28.53
2024-05-09T08:54:11.087Z,29.64
2024-05-09T08:55:11.093Z,30.44
2024-05-09T08:56:11.019Z,30.82
2024-05-09T08:57:10.792Z,30.04
2024-05-09T08:58:10.913Z,28.80
2024-05-09T08:59:10.628Z,29.85
2024-05-09T09:00:14.999Z,29.21
2024-05-09T09:01:11.474Z,28.95
2024-05-09T09:02:10.542Z,27.01
2024-05-09T09:03:10.315Z,28.09
2024-05-09T09:04:10.360Z,30.02
2024-05-09T09:05:10.356Z,28.51
2024-05-09T09:06:10.001Z,28.20
2024-05-09T09:07:10.033Z,28.97
2024-05-09T09:08:09.864Z,31.45
2024-05-09T09:09:09.807Z,32.82
2024-05-09T09:10:12.972Z,32.86
2024-05-09T09:11:10.706Z,32.60
2024-05-09T09:12:10.697Z,32.24
2024-05-09T09:13:10.054Z,29.33
2024-05-09T09:14:09.503Z,27.92
2024-05-09T09:15:09.419Z,28.29
2024-05-09T09:16:09.435Z,28.08
2024-05-09T09:17:09.304Z,27.57
2024-05-09T09:18:12.221Z,29.55
2024-05-09T09:19:09.170Z,28.29
2024-05-09T09:20:14.265Z,28.06
2024-05-09T09:21:09.791Z,28.64
2024-05-09T09:22:08.817Z,26.74
2024-05-09T09:23:08.565Z,28.79
2024-05-09T09:24:09.849Z,28.05
2024-05-09T09:25:08.467Z,27.99
2024-05-09T09:26:08.338Z,28.55
2024-05-09T09:27:08.548Z,29.16
2024-05-09T09:28:08.488Z,29.65
2024-05-09T09:29:08.080Z,28.83
2024-05-09T09:30:15.612Z,29.69
2024-05-09T09:31:08.937Z,29.79
2024-05-09T09:32:07.886Z,26.52
2024-05-09T09:33:07.782Z,26.14
2024-05-09T09:34:07.863Z,27.15
2024-05-09T09:35:07.528Z,28.26
2024-05-09T09:36:09.646Z,28.97
2024-05-09T09:37:07.502Z,30.35
2024-05-09T09:38:07.134Z,28.70
2024-05-09T09:39:07.066Z,29.89
2024-05-09T09:40:07.184Z,28.89
2024-05-09T09:41:07.004Z,29.72
2024-05-09T09:42:06.854Z,30.55
2024-05-09T09:43:06.989Z,31.41
2024-05-09T09:44:06.665Z,30.49
2024-05-09T09:45:06.590Z,31.41
2024-05-09T09:46:09.563Z,31.79
2024-05-09T09:47:07.452Z,31.54
2024-05-09T09:48:06.444Z,31.81
2024-05-09T09:49:06.366Z,30.63
2024-05-09T09:50:11.853Z,32.10
2024-05-09T09:51:07.076Z,30.94
2024-05-09T09:52:07.706Z,29.93
2024-05-09T09:53:05.988Z,30.57
2024-05-09T09:54:05.923Z,31.88
2024-05-09T09:55:05.835Z,27.64
2024-05-09T09:56:05.729Z,28.33
2024-05-09T09:57:05.630Z,29.69
2024-05-09T09:58:07.015Z,29.46
2024-05-09T09:59:05.479Z,29.20
2024-05-09T10:00:09.545Z,28.83
2024-05-09T10:01:06.394Z,29.63
2024-05-09T10:02:05.375Z,29.13
2024-05-09T10:03:05.153Z,28.33
2024-05-09T10:04:05.161Z,27.99
2024-05-09T10:05:05.301Z,31.26
2024-05-09T10:06:04.896Z,28.08
2024-05-09T10:07:04.837Z,29.71
2024-05-09T10:08:04.692Z,27.92
2024-05-09T10:09:04.633Z,27.84
2024-05-09T10:10:06.817Z,31.10
2024-05-09T10:11:04.642Z,30.57
2024-05-09T10:12:05.792Z,31.32
2024-05-09T10:13:04.559Z,29.58
2024-05-09T10:14:04.229Z,29.16
2024-05-09T10:15:04.167Z,29.25
2024-05-09T10:16:04.227Z,30.30
2024-05-09T10:17:04.052Z,29.50
2024-05-09T10:18:04.263Z,29.76
2024-05-09T10:19:03.877Z,28.09
2024-05-09T10:20:07.211Z,30.09
2024-05-09T10:21:04.605Z,28.77
2024-05-09T10:22:03.601Z,28.96
2024-05-09T10:23:03.517Z,29.20
2024-05-09T10:24:03.480Z,29.97
2024-05-09T10:25:05.173Z,30.04
2024-05-09T10:26:03.696Z,29.24
2024-05-09T10:27:03.262Z,29.90
2024-05-09T10:28:03.149Z,29.05
2024-05-09T10:29:02.986Z,30.16
2024-05-09T10:30:06.847Z,28.79
2024-05-09T10:31:03.939Z,28.86
2024-05-09T10:32:02.724Z,28.75
2024-05-09T10:33:02.886Z,29.46
2024-05-09T10:34:02.965Z,29.23
2024-05-09T10:35:02.517Z,30.81
2024-05-09T10:36:02.382Z,29.14
2024-05-09T10:37:04.699Z,31.36
2024-05-09T10:38:02.327Z,30.41
2024-05-09T10:39:02.306Z,31.56
2024-05-09T10:40:02.678Z,31.51
2024-05-09T10:41:02.145Z,31.17
2024-05-09T10:42:02.117Z,28.59
2024-05-09T10:43:04.621Z,28.11
2024-05-09T10:44:02.028Z,28.97
2024-05-09T10:45:01.976Z,29.16
2024-05-09T10:46:02.030Z,30.90
2024-05-09T10:47:01.883Z,32.43
2024-05-09T10:48:02.033Z,32.09
2024-05-09T10:49:05.154Z,32.09
2024-05-09T10:50:03.699Z,31.16
2024-05-09T10:51:01.619Z,29.24
2024-05-09T10:52:01.647Z,28.92
2024-05-09T10:53:01.485Z,28.23
2024-05-09T10:54:01.466Z,27.33
2024-05-09T10:55:03.086Z,27.14
2024-05-09T10:56:01.355Z,29.21
2024-05-09T10:57:01.323Z,28.05
2024-05-09T10:58:01.326Z,28.96
2024-05-09T10:59:01.272Z,30.44
2024-05-09T11:00:01.304Z,29.68
2024-05-09T11:01:04.372Z,29.97
2024-05-09T11:02:02.171Z,29.38
2024-05-09T11:03:01.095Z,28.97
2024-05-09T11:04:01.147Z,28.78
2024-05-09T11:05:01.219Z,28.20
2024-05-09T11:06:00.847Z,30.54
2024-05-09T11:07:02.812Z,29.92
2024-05-09T11:08:00.722Z,29.83
2024-05-09T11:09:00.732Z,31.51
2024-05-09T11:10:00.657Z,32.29
2024-05-09T11:11:00.654Z,29.19
2024-05-09T11:12:00.551Z,27.28
2024-05-09T11:13:00.570Z,26.78
2024-05-09T11:14:00.379Z,27.20
2024-05-09T11:15:00.423Z,28.47
2024-05-09T11:16:00.516Z,31.32
2024-05-09T11:17:00.183Z,30.41
2024-05-09T11:18:00.286Z,29.41
2024-05-09T11:19:00.347Z,28.78
2024-05-09T11:20:00.144Z,29.02
2024-05-09T11:21:00.021Z,28.74
2024-05-09T11:22:00.056Z,30.02
2024-05-09T11:23:00.000Z,29.38
2024-05-09T11:23:59.998Z,28.66
2024-05-09T11:25:00.002Z,28.74
2024-05-09T11:25:59.888Z,27.11
2024-05-09T11:26:59.888Z,29.13
2024-05-09T11:27:59.899Z,31.13
2024-05-09T11:28:59.884Z,30.83
2024-05-09T11:29:59.861Z,32.31
2024-05-09T11:31:00.094Z,32.20
2024-05-09T11:31:59.791Z,31.95
2024-05-09T11:33:00.017Z,31.52
2024-05-09T11:33:59.694Z,30.50
2024-05-09T11:34:59.546Z,29.92
2024-05-09T11:35:59.576Z,31.68
2024-05-09T11:36:59.640Z,32.46
2024-05-09T11:37:59.495Z,31.52
2024-05-09T11:38:59.502Z,30.80
2024-05-09T11:39:59.585Z,31.85
2024-05-09T11:40:59.435Z,29.17
2024-05-09T11:41:59.452Z,28.96
2024-05-09T11:42:59.523Z,28.56
2024-05-09T11:43:59.403Z,30.15
2024-05-09T11:44:59.401Z,30.40
2024-05-09T11:45:59.468Z,28.89
2024-05-09T11:46:59.348Z,29.47
2024-05-09T11:47:59.439Z,28.75
2024-05-09T11:48:59.539Z,27.58
2024-05-09T11:49:59.572Z,29.09
2024-05-09T11:50:59.361Z,28.48
2024-05-09T11:51:59.358Z,27.84
2024-05-09T11:52:59.354Z,29.93
2024-05-09T11:53:59.365Z,31.23
2024-05-09T11:54:59.377Z,29.80
2024-05-09T11:55:59.358Z,28.80
2024-05-09T11:56:59.358Z,27.20
2024-05-09T11:57:59.391Z,25.61
2024-05-09T11:58:59.378Z,27.08
2024-05-09T11:59:59.402Z,25.28
2024-05-09T12:00:59.350Z,26.56
2024-05-09T12:01:59.360Z,26.46
2024-05-09T12:02:59.396Z,28.30
2024-05-09T12:03:59.494Z,28.59
2024-05-09T12:04:59.300Z,26.43
2024-05-09T12:05:59.455Z,27.51
2024-05-09T12:06:59.230Z,25.94
2024-05-09T12:07:59.194Z,25.95
2024-05-09T12:08:59.190Z,26.51
2024-05-09T12:09:59.242Z,25.62
2024-05-09T12:10:59.256Z,25.72
2024-05-09T12:11:59.066Z,26.62
2024-05-09T12:12:59.165Z,27.20
2024-05-09T12:13:59.091Z,27.52
2024-05-09T12:14:59.091Z,27.15
2024-05-09T12:15:59.121Z,29.47
2024-05-09T12:16:59.112Z,27.01
2024-05-09T12:18:01.682Z,27.33
2024-05-09T12:18:59.165Z,27.11
2024-05-09T12:19:59.056Z,28.75
2024-05-09T12:20:59.068Z,26.75
2024-05-09T12:21:59.125Z,26.64
2024-05-09T12:22:59.115Z,27.10
2024-05-09T12:23:59.034Z,26.99
2024-05-09T12:24:59.091Z,27.66
2024-05-09T12:25:58.972Z,26.39
2024-05-09T12:26:59.013Z,26.99
2024-05-09T12:27:59.097Z,27.30
2024-05-09T12:28:59.004Z,27.69
2024-05-09T12:29:59.010Z,28.41
2024-05-09T12:30:59.121Z,28.20
2024-05-09T12:31:59.004Z,27.79
2024-05-09T12:32:59.062Z,26.73
2024-05-09T12:33:59.056Z,28.45
2024-05-09T12:34:58.973Z,27.94
2024-05-09T12:35:59.002Z,29.05
2024-05-09T12:36:59.061Z,28.45
2024-05-09T12:37:58.970Z,29.83
2024-05-09T12:38:58.981Z,27.73
2024-05-09T12:39:59.075Z,27.62
2024-05-09T12:40:59.197Z,27.70
2024-05-09T12:41:58.928Z,27.24
2024-05-09T12:42:58.959Z,27.76
2024-05-09T12:43:58.943Z,27.66
2024-05-09T12:44:58.953Z,29.13
2024-05-09T12:45:59.100Z,28.89
2024-05-09T12:46:58.989Z,27.33
2024-05-09T12:47:59.070Z,28.31
2024-05-09T12:48:59.188Z,27.64
2024-05-09T12:49:58.859Z,27.96
2024-05-09T12:50:58.841Z,26.86
2024-05-09T12:51:58.794Z,28.05
2024-05-09T12:52:58.766Z,26.70
2024-05-09T12:53:58.805Z,28.11
2024-05-09T12:54:58.839Z,30.58
2024-05-09T12:56:02.334Z,29.61